Time;durP1;ratioP1;P1;durP2;ratioP2;P2;SDS_P1;SDS_P2;PMS_P1;PMS_P2;Temp;Humidity;BMP_temperature;BMP_pressure;BME280_temperature;BME280_humidity;BME280_pressure;Samples;Min_cycle;Max_cycle;Signal;HPM_P1;HPM_P2
2023/07/03 00:01:02;;;;;;;;;;;15.40;99.90;;;;;;5069052;28;20362;-76
2023/07/03 00:03:28;;;;;;;;;;;15.40;99.90;;;;;;5070751;28;19916;-79
2023/07/03 00:05:54;;;;;;;;;;;15.40;99.90;;;;;;5070179;28;19922;-79
2023/07/03 00:08:20;;;;;;;;;;;15.40;99.90;;;;;;5104413;28;19943;-80
2023/07/03 00:10:45;;;;;;;;;;;15.40;99.90;;;;;;5070137;28;19916;-77
2023/07/03 00:13:11;;;;;;;;;;;15.50;99.90;;;;;;5069595;28;19924;-78
2023/07/03 00:15:37;;;;;;;;;;;15.50;99.90;;;;;;5087465;28;19920;-79
2023/07/03 00:18:02;;;;;;;;;;;15.50;99.90;;;;;;5086840;28;19920;-78
2023/07/03 00:20:28;;;;;;;;;;;15.40;99.90;;;;;;5069982;28;19924;-77
2023/07/03 00:22:54;;;;;;;;;;;15.40;99.90;;;;;;5086871;28;19916;-78
2023/07/03 00:25:20;;;;;;;;;;;15.40;99.90;;;;;;5087495;28;19928;-79
2023/07/03 00:27:49;;;;;;;;;;;15.40;99.90;;;;;;5086675;28;20328;-81
2023/07/03 00:30:15;;;;;;;;;;;15.50;99.90;;;;;;5103311;28;19920;-78
2023/07/03 00:32:41;;;;;;;;;;;15.50;99.90;;;;;;5087191;28;20601;-79
2023/07/03 00:35:07;;;;;;;;;;;15.40;99.90;;;;;;5086533;28;19985;-78
2023/07/03 00:37:33;;;;;;;;;;;15.40;99.90;;;;;;5069957;28;20023;-80
2023/07/03 00:39:58;;;;;;;;;;;15.40;99.90;;;;;;5103689;28;19920;-77
2023/07/03 00:42:25;;;;;;;;;;;15.50;99.90;;;;;;5053284;28;19920;-76
2023/07/03 00:44:50;;;;;;;;;;;15.40;99.90;;;;;;5086868;28;19959;-80
2023/07/03 00:47:16;;;;;;;;;;;15.50;99.90;;;;;;5069822;28;20642;-77
2023/07/03 00:49:44;;;;;;;;;;;15.50;99.90;;;;;;5076063;28;19920;-77
2023/07/03 00:52:11;;;;;;;;;;;15.50;99.90;;;;;;5073272;28;19916;-80
2023/07/03 00:54:37;;;;;;;;;;;15.40;99.90;;;;;;5073578;28;20634;-79
2023/07/03 00:57:03;;;;;;;;;;;15.30;99.90;;;;;;5089867;28;19916;-79
2023/07/03 00:59:29;;;;;;;;;;;15.20;99.90;;;;;;5090114;28;19972;-76
2023/07/03 01:02:05;;;;;;;;;;;15.10;99.90;;;;;;5089639;28;19920;-77
2023/07/03 01:05:00;;;;;;;;;;;15.00;99.90;;;;;;5090385;28;20372;-79
2023/07/03 01:07:28;;;;;;;;;;;15.00;99.90;;;;;;5060792;28;19955;-78
2023/07/03 01:10:20;;;;;;;;;;;14.90;99.90;;;;;;5103666;28;19920;-78
2023/07/03 01:12:48;;;;;;;;;;;14.90;99.90;;;;;;5103019;28;19970;-78
2023/07/03 01:15:17;;;;;;;;;;;14.80;99.90;;;;;;5055995;28;19943;-80
2023/07/03 01:17:46;;;;;;;;;;;14.80;99.90;;;;;;5107656;28;20338;-81
2023/07/03 01:20:13;;;;;;;;;;;14.80;99.90;;;;;;5090112;28;19916;-79
2023/07/03 01:22:45;;;;;;;;;;;14.80;99.90;;;;;;5072928;28;19927;-81
2023/07/03 01:25:14;;;;;;;;;;;15.00;99.90;;;;;;5072893;28;19916;-82
2023/07/03 01:27:42;;;;;;;;;;;14.90;99.90;;;;;;5072885;28;20459;-79
2023/07/03 01:30:09;;;;;;;;;;;15.00;99.90;;;;;;5072581;28;19970;-82
2023/07/03 01:32:35;;;;;;;;;;;15.00;99.90;;;;;;5073600;28;19916;-80
2023/07/03 01:35:03;;;;;;;;;;;15.00;99.90;;;;;;5072940;28;19923;-80
2023/07/03 01:37:30;;;;;;;;;;;15.00;99.90;;;;;;5073136;28;19946;-78
2023/07/03 01:39:56;;;;;;;;;;;15.00;99.90;;;;;;5109319;28;19933;-80
2023/07/03 01:42:22;;;;;;;;;;;15.00;99.90;;;;;;5073965;28;20406;-78
2023/07/03 01:44:48;;;;;;;;;;;15.00;99.90;;;;;;5073424;28;19926;-76
2023/07/03 01:47:14;;;;;;;;;;;15.00;99.90;;;;;;5072749;28;20027;-80
2023/07/03 01:49:40;;;;;;;;;;;15.20;99.90;;;;;;5106897;28;19979;-80
2023/07/03 01:52:05;;;;;;;;;;;15.20;99.90;;;;;;5072805;28;19993;-80
2023/07/03 01:54:35;;;;;;;;;;;15.20;99.90;;;;;;5072872;28;20269;-81
2023/07/03 01:57:02;;;;;;;;;;;15.20;99.90;;;;;;5107094;28;19917;-82
2023/07/03 01:59:31;;;;;;;;;;;15.20;99.90;;;;;;5107226;28;19923;-80
2023/07/03 02:01:57;;;;;;;;;;;15.10;99.90;;;;;;5098448;28;19963;-77
2023/07/03 02:04:26;;;;;;;;;;;15.10;99.90;;;;;;5127037;27;19969;-79
2023/07/03 02:06:52;;;;;;;;;;;15.00;99.90;;;;;;5126831;27;20379;-80
2023/07/03 02:09:18;;;;;;;;;;;14.90;99.90;;;;;;5092392;28;20353;-78
2023/07/03 02:11:45;;;;;;;;;;;14.80;99.90;;;;;;5092452;28;19923;-79
2023/07/03 02:14:12;;;;;;;;;;;14.80;99.90;;;;;;5092428;28;19924;-78
2023/07/03 02:16:41;;;;;;;;;;;14.70;99.90;;;;;;5092847;28;19970;-78
2023/07/03 02:19:07;;;;;;;;;;;14.60;99.90;;;;;;5092207;28;19924;-77
2023/07/03 02:21:36;;;;;;;;;;;14.50;99.90;;;;;;5092904;28;20003;-77
2023/07/03 02:24:02;;;;;;;;;;;14.40;99.90;;;;;;5092954;28;20007;-81
2023/07/03 02:26:27;;;;;;;;;;;14.30;99.90;;;;;;5092322;28;19916;-79
2023/07/03 02:28:53;;;;;;;;;;;14.30;99.90;;;;;;5075376;28;20426;-78
2023/07/03 02:31:19;;;;;;;;;;;14.30;99.90;;;;;;5074996;28;19916;-77
2023/07/03 02:33:44;;;;;;;;;;;14.30;99.90;;;;;;5075310;28;19930;-77
2023/07/03 02:36:10;;;;;;;;;;;14.40;99.90;;;;;;5091681;28;20276;-76
2023/07/03 02:38:36;;;;;;;;;;;14.20;99.90;;;;;;5075172;28;19920;-77
2023/07/03 02:41:02;;;;;;;;;;;14.20;99.90;;;;;;5126052;27;19924;-77
2023/07/03 02:43:30;;;;;;;;;;;14.10;99.90;;;;;;5091388;28;20352;-82
2023/07/03 02:46:01;;;;;;;;;;;14.10;99.90;;;;;;5109309;28;19920;-78
2023/07/03 02:48:26;;;;;;;;;;;14.10;99.90;;;;;;5091420;28;19920;-78
2023/07/03 02:50:52;;;;;;;;;;;14.10;99.90;;;;;;5074506;28;19926;-81
2023/07/03 02:53:18;;;;;;;;;;;14.20;99.90;;;;;;5091531;28;20344;-79
2023/07/03 02:55:43;;;;;;;;;;;14.10;99.90;;;;;;5092036;28;19916;-79
2023/07/03 02:58:09;;;;;;;;;;;14.10;99.90;;;;;;5092606;28;20023;-81
2023/07/03 03:00:35;;;;;;;;;;;14.10;99.90;;;;;;5074942;28;19920;-80
2023/07/03 03:03:00;;;;;;;;;;;14.10;99.90;;;;;;5092263;28;19922;-81
2023/07/03 03:05:26;;;;;;;;;;;14.10;99.90;;;;;;5091104;28;19920;-79
2023/07/03 03:07:52;;;;;;;;;;;14.10;99.90;;;;;;5090911;28;19916;-79
2023/07/03 03:10:17;;;;;;;;;;;14.10;99.90;;;;;;5090478;28;19938;-81
2023/07/03 03:12:43;;;;;;;;;;;14.00;99.90;;;;;;5090854;28;19934;-79
2023/07/03 03:15:09;;;;;;;;;;;14.00;99.90;;;;;;5073302;28;20388;-79
2023/07/03 03:17:34;;;;;;;;;;;14.70;99.90;;;;;;5090359;28;19919;-78
2023/07/03 03:20:00;;;;;;;;;;;13.90;99.90;;;;;;5090538;28;20276;-78
2023/07/03 03:22:25;;;;;;;;;;;14.00;99.90;;;;;;5073973;28;19935;-78
2023/07/03 03:24:51;;;;;;;;;;;13.90;99.90;;;;;;5090863;28;20707;-82
2023/07/03 03:27:16;;;;;;;;;;;14.00;99.90;;;;;;5090979;28;19927;-79
2023/07/03 03:29:50;;;;;;;;;;;14.00;99.90;;;;;;5091644;28;19963;-81
2023/07/03 03:32:16;;;;;;;;;;;13.90;99.90;;;;;;5091165;28;19915;-79
2023/07/03 03:34:42;;;;;;;;;;;13.90;99.90;;;;;;5091294;28;20015;-77
2023/07/03 03:37:07;;;;;;;;;;;13.90;99.90;;;;;;5074259;28;20003;-78
2023/07/03 03:39:33;;;;;;;;;;;14.00;99.90;;;;;;5091116;28;19934;-79
2023/07/03 03:41:59;;;;;;;;;;;14.00;99.90;;;;;;5091329;28;19924;-80
2023/07/03 03:44:24;;;;;;;;;;;14.00;99.90;;;;;;5090696;28;19941;-81
2023/07/03 03:46:52;;;;;;;;;;;14.00;99.90;;;;;;5091644;28;19924;-78
2023/07/03 03:49:19;;;;;;;;;;;14.00;99.90;;;;;;5090329;28;20288;-77
2023/07/03 03:51:48;;;;;;;;;;;14.00;99.90;;;;;;5091154;28;20365;-81
2023/07/03 03:54:13;;;;;;;;;;;14.00;99.90;;;;;;5057160;28;19923;-79
2023/07/03 03:56:39;;;;;;;;;;;14.00;99.90;;;;;;5074328;28;19916;-80
2023/07/03 03:59:04;;;;;;;;;;;14.00;99.90;;;;;;5090926;28;20002;-78
2023/07/03 04:01:33;;;;;;;;;;;14.00;99.90;;;;;;5090360;28;20679;-82
2023/07/03 04:03:58;;;;;;;;;;;14.00;99.90;;;;;;5074050;28;19923;-77
2023/07/03 04:06:25;;;;;;;;;;;14.00;99.90;;;;;;5090744;28;19916;-78
2023/07/03 04:08:51;;;;;;;;;;;14.00;99.90;;;;;;5091469;28;20539;-78
2023/07/03 04:11:16;;;;;;;;;;;14.00;99.90;;;;;;5090179;28;20359;-79
2023/07/03 04:13:42;;;;;;;;;;;14.20;99.90;;;;;;5090863;28;19962;-81
2023/07/03 04:16:08;;;;;;;;;;;14.00;99.90;;;;;;5074938;28;19930;-78
2023/07/03 04:18:34;;;;;;;;;;;14.00;99.90;;;;;;5090515;28;20010;-79
2023/07/03 04:21:00;;;;;;;;;;;14.10;99.90;;;;;;5091366;28;20353;-82
2023/07/03 04:23:26;;;;;;;;;;;14.10;99.90;;;;;;5090536;28;19916;-82
2023/07/03 04:25:55;;;;;;;;;;;14.10;99.90;;;;;;5092280;28;19916;-80
2023/07/03 04:28:23;;;;;;;;;;;14.10;99.90;;;;;;5090499;28;19941;-83
2023/07/03 04:30:50;;;;;;;;;;;14.20;99.90;;;;;;5091228;28;19920;-78
2023/07/03 04:33:17;;;;;;;;;;;14.20;99.90;;;;;;5073106;28;19916;-83
2023/07/03 04:35:43;;;;;;;;;;;14.40;99.90;;;;;;5074416;28;19967;-79
2023/07/03 04:38:09;;;;;;;;;;;14.50;99.90;;;;;;5090497;28;20013;-79
2023/07/03 04:40:34;;;;;;;;;;;14.50;99.90;;;;;;5073560;28;20336;-80
2023/07/03 04:43:00;;;;;;;;;;;14.60;99.90;;;;;;5090279;28;19946;-78
2023/07/03 04:45:31;;;;;;;;;;;14.60;99.90;;;;;;5091216;28;20569;-79
2023/07/03 04:47:57;;;;;;;;;;;14.70;99.90;;;;;;5094193;28;19916;-78
2023/07/03 04:50:24;;;;;;;;;;;14.60;99.90;;;;;;5093427;28;19934;-79
2023/07/03 04:52:51;;;;;;;;;;;14.70;99.90;;;;;;5094495;28;19924;-77
2023/07/03 04:55:17;;;;;;;;;;;14.60;99.90;;;;;;5093791;28;19916;-80
2023/07/03 04:57:42;;;;;;;;;;;14.70;99.90;;;;;;5094710;28;19924;-78
2023/07/03 05:00:14;;;;;;;;;;;14.70;99.90;;;;;;5128250;27;20528;-81
2023/07/03 05:02:41;;;;;;;;;;;14.70;99.90;;;;;;5093764;28;19927;-80
2023/07/03 05:05:06;;;;;;;;;;;14.80;99.90;;;;;;5111209;28;19938;-81
2023/07/03 05:07:32;;;;;;;;;;;14.90;99.90;;;;;;5093985;28;19916;-79
2023/07/03 05:10:01;;;;;;;;;;;14.90;99.90;;;;;;5095631;28;19969;-79
2023/07/03 05:12:27;;;;;;;;;;;14.90;99.90;;;;;;5127991;27;19916;-78
2023/07/03 05:14:52;;;;;;;;;;;14.90;99.90;;;;;;5094695;28;19920;-76
2023/07/03 05:17:19;;;;;;;;;;;15.00;99.90;;;;;;5076892;28;19923;-75
2023/07/03 05:19:47;;;;;;;;;;;15.10;99.90;;;;;;5095747;28;19923;-79
2023/07/03 05:22:12;;;;;;;;;;;15.20;99.90;;;;;;5099365;28;20069;-76
2023/07/03 05:24:38;;;;;;;;;;;15.40;99.90;;;;;;5096344;28;19966;-78
2023/07/03 05:27:04;;;;;;;;;;;15.50;99.90;;;;;;5094394;28;19920;-78
2023/07/03 05:29:31;;;;;;;;;;;15.70;99.90;;;;;;5094032;28;19981;-79
2023/07/03 05:31:56;;;;;;;;;;;15.90;99.90;;;;;;5094900;28;19924;-78
2023/07/03 05:34:22;;;;;;;;;;;15.90;99.90;;;;;;5094152;28;20284;-76
2023/07/03 05:36:47;;;;;;;;;;;16.00;99.90;;;;;;5093590;28;20265;-80
2023/07/03 05:39:13;;;;;;;;;;;16.10;99.90;;;;;;5093334;28;20280;-81
2023/07/03 05:41:40;;;;;;;;;;;16.20;99.90;;;;;;5093695;28;19989;-79
2023/07/03 05:44:05;;;;;;;;;;;16.30;99.90;;;;;;5094887;28;19962;-80
2023/07/03 05:46:37;;;;;;;;;;;16.30;99.90;;;;;;5077653;28;19965;-77
2023/07/03 05:49:02;;;;;;;;;;;16.10;99.90;;;;;;5093235;28;19920;-80
2023/07/03 05:51:28;;;;;;;;;;;16.10;99.90;;;;;;5092880;28;19922;-77
2023/07/03 05:53:53;;;;;;;;;;;16.10;99.90;;;;;;5093661;28;19923;-76
2023/07/03 05:56:19;;;;;;;;;;;16.00;99.90;;;;;;5093203;28;19955;-80
2023/07/03 05:58:44;;;;;;;;;;;15.90;99.90;;;;;;5091193;28;19973;-81
2023/07/03 06:01:10;;;;;;;;;;;15.80;99.90;;;;;;5093314;28;19928;-83
2023/07/03 06:03:35;;;;;;;;;;;15.60;99.90;;;;;;5093559;28;19923;-78
2023/07/03 06:06:04;;;;;;;;;;;15.60;99.90;;;;;;5093307;28;20608;-80
2023/07/03 06:08:30;;;;;;;;;;;15.50;99.90;;;;;;5092514;28;19966;-82
2023/07/03 06:10:55;;;;;;;;;;;15.50;99.90;;;;;;5076164;28;19967;-81
2023/07/03 06:13:21;;;;;;;;;;;15.60;99.90;;;;;;5092698;28;19999;-77
2023/07/03 06:15:47;;;;;;;;;;;15.70;99.90;;;;;;5075867;28;19920;-78
2023/07/03 06:18:14;;;;;;;;;;;15.80;99.90;;;;;;5092685;28;19962;-77
2023/07/03 06:20:40;;;;;;;;;;;15.90;99.90;;;;;;5092246;28;20792;-78
2023/07/03 06:23:05;;;;;;;;;;;15.90;99.90;;;;;;5093010;28;19920;-77
2023/07/03 06:25:31;;;;;;;;;;;15.90;99.90;;;;;;5092570;28;19939;-80
2023/07/03 06:27:57;;;;;;;;;;;16.00;99.90;;;;;;5075701;28;19916;-78
2023/07/03 06:30:23;;;;;;;;;;;16.20;99.90;;;;;;5094475;28;20276;-76
2023/07/03 06:32:48;;;;;;;;;;;16.70;99.90;;;;;;5092191;28;19916;-78
2023/07/03 06:35:14;;;;;;;;;;;16.60;99.90;;;;;;5093281;28;19916;-78
2023/07/03 06:37:40;;;;;;;;;;;17.00;99.90;;;;;;5091974;28;19920;-81
2023/07/03 06:40:14;;;;;;;;;;;17.20;99.90;;;;;;5092686;28;20279;-77
2023/07/03 06:42:39;;;;;;;;;;;17.20;99.90;;;;;;5092588;28;20079;-79
2023/07/03 06:45:05;;;;;;;;;;;17.30;99.90;;;;;;5076578;28;19996;-76
2023/07/03 06:47:32;;;;;;;;;;;17.20;99.90;;;;;;5094366;28;19981;-79
2023/07/03 06:49:58;;;;;;;;;;;17.10;99.90;;;;;;5092878;28;19963;-79
2023/07/03 06:52:23;;;;;;;;;;;16.90;99.90;;;;;;5092564;28;20332;-76
2023/07/03 06:54:49;;;;;;;;;;;16.50;99.90;;;;;;5091497;28;19923;-77
2023/07/03 06:57:14;;;;;;;;;;;16.20;99.90;;;;;;5075805;28;19923;-82
2023/07/03 06:59:43;;;;;;;;;;;15.90;99.90;;;;;;5091614;28;20006;-79
2023/07/03 07:02:09;;;;;;;;;;;15.70;99.90;;;;;;5091601;28;20015;-79
2023/07/03 07:04:35;;;;;;;;;;;15.40;99.90;;;;;;5091310;28;19920;-79
2023/07/03 07:07:01;;;;;;;;;;;15.30;99.90;;;;;;5091816;28;20057;-80
2023/07/03 07:09:26;;;;;;;;;;;15.10;99.90;;;;;;5074352;28;20261;-78
2023/07/03 07:11:52;;;;;;;;;;;15.00;99.90;;;;;;5091547;28;19916;-79
2023/07/03 07:14:17;;;;;;;;;;;15.00;99.90;;;;;;5074760;28;19923;-78
2023/07/03 07:16:43;;;;;;;;;;;15.00;99.90;;;;;;5091205;28;20017;-78
2023/07/03 07:19:10;;;;;;;;;;;14.90;99.90;;;;;;5091773;28;19973;-77
2023/07/03 07:21:38;;;;;;;;;;;14.80;99.90;;;;;;5074228;28;19923;-79
2023/07/03 07:24:12;;;;;;;;;;;14.90;99.90;;;;;;5074549;28;20002;-81
2023/07/03 07:26:38;;;;;;;;;;;15.10;99.90;;;;;;5090917;28;19930;-79
2023/07/03 07:29:04;;;;;;;;;;;15.40;99.90;;;;;;5091839;28;19916;-80
2023/07/03 07:31:31;;;;;;;;;;;15.70;99.90;;;;;;5090927;28;20463;-80
2023/07/03 07:33:57;;;;;;;;;;;15.90;99.90;;;;;;5091627;28;19923;-83
2023/07/03 07:36:23;;;;;;;;;;;16.00;99.90;;;;;;5074514;28;19920;-79
2023/07/03 07:38:49;;;;;;;;;;;16.00;99.90;;;;;;5090446;28;19916;-78
2023/07/03 07:41:15;;;;;;;;;;;16.10;99.90;;;;;;5091101;28;19927;-81
2023/07/03 07:43:41;;;;;;;;;;;16.10;99.90;;;;;;5090515;28;19920;-77
2023/07/03 07:46:07;;;;;;;;;;;16.20;99.90;;;;;;5091172;28;19927;-76
2023/07/03 07:48:33;;;;;;;;;;;16.30;99.90;;;;;;5107956;28;19923;-79
2023/07/03 07:50:59;;;;;;;;;;;16.50;99.90;;;;;;5091820;28;20305;-82
2023/07/03 07:53:26;;;;;;;;;;;16.70;99.90;;;;;;5091417;28;19916;-80
2023/07/03 07:55:52;;;;;;;;;;;16.80;99.90;;;;;;5074570;28;19915;-79
2023/07/03 07:58:17;;;;;;;;;;;16.80;99.90;;;;;;5091093;28;20230;-75
2023/07/03 08:00:44;;;;;;;;;;;16.90;99.90;;;;;;5074025;28;19916;-82
2023/07/03 08:03:11;;;;;;;;;;;16.90;99.90;;;;;;5074246;28;19952;-81
2023/07/03 08:05:37;;;;;;;;;;;17.00;99.90;;;;;;5090612;28;20280;-81
2023/07/03 08:08:03;;;;;;;;;;;17.00;99.90;;;;;;5090882;28;20030;-79
2023/07/03 08:10:29;;;;;;;;;;;17.10;99.90;;;;;;5091087;28;20006;-79
2023/07/03 08:12:54;;;;;;;;;;;17.10;99.90;;;;;;5073581;28;19999;-79
2023/07/03 08:15:20;;;;;;;;;;;17.30;99.90;;;;;;5090854;28;19920;-80
2023/07/03 08:17:46;;;;;;;;;;;;;;;;;;5073969;28;19969;-77
2023/07/03 08:20:12;;;;;;;;;;;17.80;99.90;;;;;;5091637;28;20008;-83
2023/07/03 08:22:38;;;;;;;;;;;18.10;99.90;;;;;;5093463;28;19931;-78
2023/07/03 08:25:05;;;;;;;;;;;18.10;99.90;;;;;;5078437;28;19954;-77
2023/07/03 08:27:30;;;;;;;;;;;17.90;99.90;;;;;;5095088;28;19919;-83
2023/07/03 08:29:56;;;;;;;;;;;17.80;99.90;;;;;;5094553;28;20011;-80
2023/07/03 08:32:22;;;;;;;;;;;17.80;99.90;;;;;;5095371;28;20325;-79
2023/07/03 08:34:48;;;;;;;;;;;18.00;99.90;;;;;;5094739;28;19923;-81
2023/07/03 08:37:13;;;;;;;;;;;18.10;99.90;;;;;;5094666;28;20019;-79
2023/07/03 08:39:39;;;;;;;;;;;18.20;99.90;;;;;;5094483;28;19916;-80
2023/07/03 08:42:25;;;;;;;;;;;18.10;99.90;;;;;;5096525;28;19920;-81
2023/07/03 08:44:50;;;;;;;;;;;18.20;99.90;;;;;;5095330;28;19920;-81
2023/07/03 08:47:21;;;;;;;;;;;18.20;99.90;;;;;;5078298;28;19926;-79
2023/07/03 08:49:47;;;;;;;;;;;18.30;99.90;;;;;;5094354;28;19954;-81
2023/07/03 08:52:17;;;;;;;;;;;18.60;99.90;;;;;;5094550;28;19919;-78
2023/07/03 08:54:43;;;;;;;;;;;18.70;99.90;;;;;;5094045;28;19920;-82
2023/07/03 08:57:10;;;;;;;;;;;18.90;99.90;;;;;;5094264;28;19920;-77
2023/07/03 08:59:36;;;;;;;;;;;19.10;99.90;;;;;;5127941;27;19919;-76
2023/07/03 09:02:20;;;;;;;;;;;19.20;99.90;;;;;;5093768;28;19920;-80
2023/07/03 09:05:04;;;;;;;;;;;19.10;99.90;;;;;;5093714;28;19916;-78
2023/07/03 09:07:30;;;;;;;;;;;19.10;99.90;;;;;;5095538;28;19919;-80
2023/07/03 09:10:14;;;;;;;;;;;18.80;99.90;;;;;;5077125;28;20397;-78
2023/07/03 09:12:43;;;;;;;;;;;18.50;99.90;;;;;;5093336;28;19924;-79
2023/07/03 09:15:14;;;;;;;;;;;18.10;99.90;;;;;;5092507;28;19920;-77
2023/07/03 09:17:42;;;;;;;;;;;17.90;99.90;;;;;;5076658;28;20357;-77
2023/07/03 09:20:10;;;;;;;;;;;17.70;99.90;;;;;;5093343;28;19985;-79
2023/07/03 09:22:44;;;;;;;;;;;17.80;99.90;;;;;;5076984;28;19920;-81
2023/07/03 09:25:14;;;;;;;;;;;17.80;99.90;;;;;;5076589;28;19923;-78
2023/07/03 09:27:41;;;;;;;;;;;17.80;99.90;;;;;;5127034;27;20355;-79
2023/07/03 09:30:11;;;;;;;;;;;18.00;99.90;;;;;;5093103;28;20426;-80
2023/07/03 09:32:36;;;;;;;;;;;18.10;99.90;;;;;;5092552;28;19920;-80
2023/07/03 09:35:02;;;;;;;;;;;18.10;99.90;;;;;;5092955;28;19916;-76
2023/07/03 09:37:28;;;;;;;;;;;18.10;99.90;;;;;;5092883;28;19927;-78
2023/07/03 09:39:54;;;;;;;;;;;18.10;99.90;;;;;;5109518;28;19920;-80
2023/07/03 09:42:20;;;;;;;;;;;18.10;99.90;;;;;;5092956;28;19977;-77
2023/07/03 09:44:46;;;;;;;;;;;18.10;99.90;;;;;;5093069;28;19951;-76
2023/07/03 09:47:24;;;;;;;;;;;18.10;99.90;;;;;;5092755;28;19970;-76
2023/07/03 09:49:50;;;;;;;;;;;18.10;99.90;;;;;;5092099;28;19985;-79
2023/07/03 09:52:16;;;;;;;;;;;18.10;99.90;;;;;;5092917;28;19915;-79
2023/07/03 09:54:43;;;;;;;;;;;18.10;99.90;;;;;;5093672;28;20574;-79
2023/07/03 09:57:18;;;;;;;;;;;18.10;99.90;;;;;;5092394;28;19916;-77
2023/07/03 09:59:44;;;;;;;;;;;18.00;99.90;;;;;;5091718;28;19959;-78
2023/07/03 10:02:10;;;;;;;;;;;18.00;99.90;;;;;;5092373;28;19990;-77
2023/07/03 10:04:44;;;;;;;;;;;18.00;99.90;;;;;;5092569;28;19919;-78
2023/07/03 10:07:13;;;;;;;;;;;18.00;99.90;;;;;;5092249;28;19916;-78
2023/07/03 10:09:40;;;;;;;;;;;17.70;99.90;;;;;;5092056;28;19916;-81
2023/07/03 10:12:10;;;;;;;;;;;17.50;99.90;;;;;;5092066;28;19953;-78
2023/07/03 10:14:52;;;;;;;;;;;17.50;99.90;;;;;;5092297;28;20475;-77
2023/07/03 10:17:22;;;;;;;;;;;17.50;99.90;;;;;;5092129;28;19916;-82
2023/07/03 10:19:51;;;;;;;;;;;17.60;99.90;;;;;;5091899;28;19965;-84
2023/07/03 10:22:17;;;;;;;;;;;17.70;99.90;;;;;;5092065;28;19920;-79
2023/07/03 10:24:44;;;;;;;;;;;17.60;99.90;;;;;;5091611;28;19966;-81
2023/07/03 10:27:11;;;;;;;;;;;17.50;99.90;;;;;;5092037;28;19915;-76
2023/07/03 10:29:41;;;;;;;;;;;17.50;99.90;;;;;;5092401;28;19923;-79
2023/07/03 10:32:14;;;;;;;;;;;17.40;99.90;;;;;;5091939;28;19916;-80
2023/07/03 10:34:43;;;;;;;;;;;17.50;99.90;;;;;;5092124;28;19920;-77
2023/07/03 10:37:10;;;;;;;;;;;17.50;99.90;;;;;;5091537;28;19916;-77
2023/07/03 10:39:36;;;;;;;;;;;17.50;99.90;;;;;;5091601;28;20288;-80
2023/07/03 10:42:03;;;;;;;;;;;17.60;99.90;;;;;;5091248;28;19924;-80
2023/07/03 10:44:32;;;;;;;;;;;17.70;99.90;;;;;;5091174;28;20399;-78
2023/07/03 10:47:03;;;;;;;;;;;17.80;99.90;;;;;;5091118;28;19916;-81
2023/07/03 10:49:31;;;;;;;;;;;17.80;99.90;;;;;;5090983;28;20387;-81
2023/07/03 10:52:12;;;;;;;;;;;17.80;99.90;;;;;;5091339;28;19926;-81
2023/07/03 10:54:42;;;;;;;;;;;17.70;99.90;;;;;;5091795;28;19915;-80
2023/07/03 10:57:11;;;;;;;;;;;17.30;99.90;;;;;;5091236;28;19916;-77
2023/07/03 10:59:41;;;;;;;;;;;16.80;99.90;;;;;;5091761;28;19920;-76
2023/07/03 11:02:28;;;;;;;;;;;16.40;99.90;;;;;;5073763;28;20026;-75
2023/07/03 11:05:00;;;;;;;;;;;16.20;99.90;;;;;;5091043;28;20241;-77
2023/07/03 11:07:25;;;;;;;;;;;16.30;99.90;;;;;;5091167;28;19916;-81
2023/07/03 11:09:51;;;;;;;;;;;16.50;99.90;;;;;;5090739;28;19926;-78
2023/07/03 11:12:17;;;;;;;;;;;16.60;99.90;;;;;;5091395;28;20012;-75
2023/07/03 11:14:49;;;;;;;;;;;16.80;99.90;;;;;;5091291;28;19916;-80
2023/07/03 11:17:25;;;;;;;;;;;17.30;99.90;;;;;;5091310;28;19959;-76
2023/07/03 11:19:57;;;;;;;;;;;17.60;99.90;;;;;;5091095;28;19924;-76
2023/07/03 11:22:26;;;;;;;;;;;17.90;99.90;;;;;;5091910;28;20038;-79
2023/07/03 11:24:52;;;;;;;;;;;18.00;99.90;;;;;;5090706;28;20027;-80
2023/07/03 11:27:40;;;;;;;;;;;18.30;99.90;;;;;;5091204;28;20061;-79
2023/07/03 11:30:07;;;;;;;;;;;18.70;99.90;;;;;;5090745;28;19916;-77
2023/07/03 11:32:36;;;;;;;;;;;19.10;99.90;;;;;;5091424;28;19957;-77
2023/07/03 11:35:02;;;;;;;;;;;19.20;99.90;;;;;;5090413;28;19916;-82
2023/07/03 11:37:33;;;;;;;;;;;19.20;99.90;;;;;;5073809;28;19923;-77
2023/07/03 11:40:18;;;;;;;;;;;19.10;99.90;;;;;;5090636;28;19919;-77
2023/07/03 11:42:44;;;;;;;;;;;18.90;99.90;;;;;;5090554;28;19927;-79
2023/07/03 11:45:23;;;;;;;;;;;18.70;99.90;;;;;;5090753;28;19916;-79
2023/07/03 11:47:51;;;;;;;;;;;18.60;99.90;;;;;;5124467;27;19916;-78
2023/07/03 11:50:25;;;;;;;;;;;18.50;99.90;;;;;;5106792;28;20019;-78
2023/07/03 11:52:51;;;;;;;;;;;18.40;99.90;;;;;;5090282;28;19924;-77
2023/07/03 11:55:20;;;;;;;;;;;18.20;99.90;;;;;;5090420;28;20018;-79
2023/07/03 11:57:49;;;;;;;;;;;18.00;99.90;;;;;;5090566;28;20377;-78
2023/07/03 12:00:22;;;;;;;;;;;17.90;99.90;;;;;;5090568;28;20017;-76
2023/07/03 12:02:48;;;;;;;;;;;17.90;99.90;;;;;;5090679;28;19967;-76
2023/07/03 12:05:32;;;;;;;;;;;18.30;99.90;;;;;;5073355;28;20411;-78
2023/07/03 12:07:58;;;;;;;;;;;18.80;99.90;;;;;;5090245;28;20269;-77
2023/07/03 12:10:24;;;;;;;;;;;19.60;99.90;;;;;;5090690;28;19920;-77
2023/07/03 12:13:08;;;;;;;;;;;20.00;99.90;;;;;;5090257;28;19919;-75
2023/07/03 12:15:34;;;;;;;;;;;20.10;99.90;;;;;;5090623;28;20284;-79
2023/07/03 12:18:01;;;;;;;;;;;20.10;99.90;;;;;;5090301;28;19920;-82
2023/07/03 12:20:27;;;;;;;;;;;19.70;98.90;;;;;;5073287;28;19920;-79
2023/07/03 12:22:53;;;;;;;;;;;19.30;99.10;;;;;;5072889;28;19928;-77
2023/07/03 12:25:26;;;;;;;;;;;19.00;99.50;;;;;;5090717;28;19969;-77
2023/07/03 12:27:52;;;;;;;;;;;18.90;99.90;;;;;;5072919;28;19916;-77
2023/07/03 12:30:21;;;;;;;;;;;18.80;99.90;;;;;;5089966;28;19920;-78
2023/07/03 12:32:51;;;;;;;;;;;18.70;99.90;;;;;;5089904;28;19916;-81
2023/07/03 12:35:22;;;;;;;;;;;18.70;99.90;;;;;;5089933;28;19916;-79
2023/07/03 12:37:47;;;;;;;;;;;18.50;99.90;;;;;;5107101;28;20266;-77
2023/07/03 12:40:14;;;;;;;;;;;18.50;99.90;;;;;;5089641;28;19923;-77
2023/07/03 12:42:40;;;;;;;;;;;18.50;99.70;;;;;;5089503;28;19967;-76
2023/07/03 12:45:17;;;;;;;;;;;18.30;99.70;;;;;;5089607;28;19967;-76
2023/07/03 12:47:43;;;;;;;;;;;18.30;99.60;;;;;;5073095;28;20424;-80
2023/07/03 12:50:12;;;;;;;;;;;18.30;99.90;;;;;;5089350;28;19923;-79
2023/07/03 12:52:38;;;;;;;;;;;18.30;99.90;;;;;;5089884;28;19916;-77
2023/07/03 12:55:06;;;;;;;;;;;18.30;99.90;;;;;;5089341;28;19946;-78
2023/07/03 12:57:34;;;;;;;;;;;18.50;99.90;;;;;;5089581;28;19942;-80
2023/07/03 13:00:00;;;;;;;;;;;18.60;99.90;;;;;;5089796;28;20352;-76
2023/07/03 13:02:26;;;;;;;;;;;18.70;99.90;;;;;;5089609;28;19954;-75
2023/07/03 13:05:04;;;;;;;;;;;19.20;99.90;;;;;;5089965;28;19970;-76
2023/07/03 13:07:30;;;;;;;;;;;18.70;99.90;;;;;;5090603;28;19924;-74
2023/07/03 13:09:56;;;;;;;;;;;18.70;99.90;;;;;;5075964;28;19920;-74
2023/07/03 13:12:23;;;;;;;;;;;18.70;99.40;;;;;;5076474;28;20389;-78
2023/07/03 13:15:06;;;;;;;;;;;18.70;99.40;;;;;;5092821;28;19916;-80
2023/07/03 13:17:33;;;;;;;;;;;18.70;99.50;;;;;;5092716;28;19962;-77
2023/07/03 13:20:26;;;;;;;;;;;18.70;99.80;;;;;;5092884;28;19927;-77
2023/07/03 13:22:58;;;;;;;;;;;18.90;99.70;;;;;;5090388;28;19927;-80
2023/07/03 13:25:30;;;;;;;;;;;19.30;99.90;;;;;;5092904;28;20319;-78
2023/07/03 13:27:56;;;;;;;;;;;20.00;99.90;;;;;;5092427;28;19916;-75
2023/07/03 13:30:23;;;;;;;;;;;20.60;99.40;;;;;;5076664;28;19973;-76
2023/07/03 13:32:57;;;;;;;;;;;21.20;97.40;;;;;;5092997;28;19915;-79
2023/07/03 13:35:31;;;;;;;;;;;21.30;95.50;;;;;;5093011;28;19920;-75
2023/07/03 13:38:09;;;;;;;;;;;21.30;93.40;;;;;;5075614;28;19942;-76
2023/07/03 13:40:34;;;;;;;;;;;21.10;93.30;;;;;;5092633;28;19984;-75
2023/07/03 13:43:01;;;;;;;;;;;21.20;93.70;;;;;;5075345;28;19932;-79
2023/07/03 13:45:27;;;;;;;;;;;21.60;92.80;;;;;;5092238;28;19915;-77
2023/07/03 13:47:53;;;;;;;;;;;21.50;91.10;;;;;;5092161;28;19923;-78
2023/07/03 13:50:18;;;;;;;;;;;21.50;90.20;;;;;;5075107;28;20385;-75
2023/07/03 13:52:44;;;;;;;;;;;21.70;90.20;;;;;;5092603;28;20285;-76
2023/07/03 13:55:09;;;;;;;;;;;21.90;86.20;;;;;;5075553;28;19927;-79
2023/07/03 13:57:35;;;;;;;;;;;22.10;85.00;;;;;;5093981;28;19927;-75
2023/07/03 14:00:01;;;;;;;;;;;22.10;83.40;;;;;;5092447;28;19929;-78
2023/07/03 14:02:26;;;;;;;;;;;22.10;79.60;;;;;;5091756;28;20009;-79
2023/07/03 14:04:52;;;;;;;;;;;22.20;80.30;;;;;;5092202;28;20273;-78
2023/07/03 14:07:17;;;;;;;;;;;22.30;79.20;;;;;;5091705;28;19951;-75
2023/07/03 14:09:43;;;;;;;;;;;22.20;79.00;;;;;;5092433;28;19916;-75
2023/07/03 14:12:09;;;;;;;;;;;21.60;80.40;;;;;;5091315;28;19916;-78
2023/07/03 14:14:34;;;;;;;;;;;21.00;84.70;;;;;;5091727;28;19920;-80
2023/07/03 14:17:00;;;;;;;;;;;20.30;87.70;;;;;;5091661;28;20038;-77
2023/07/03 14:19:25;;;;;;;;;;;19.70;89.90;;;;;;5090829;28;19966;-76
2023/07/03 14:21:51;;;;;;;;;;;19.20;91.00;;;;;;5091928;28;19920;-78